Terminal Aerodrome Forecast
Issued by NWS

Current Version | Previous Version | Text Only | Print | Product List | Glossary On
Versions: 1 2 3 4 5 6 7 8 9 10 11 12 13 14 15 16
000
FTAK31 PAJN 231700
TAFAWG
TAF
PAWG 231720Z 2318/2418 12007KT P6SM -SHRA BKN040 OVC060
     FM232200 12005KT P6SM VCSH BKN070
     FM240400 12004KT P6SM BKN050
      AMD LTD TO CLD VIS AND WIND 2406/2415=

USA.gov is the U.S. government's official web portal to all federal, state and local government web resources and services.